createdAt,value
2022-09-17T00:01:47.411Z,10.60
2022-09-17T00:04:17.425Z,10.60
2022-09-17T00:06:49.552Z,10.60
2022-09-17T00:09:22.173Z,10.70
2022-09-17T00:11:50.907Z,10.70
2022-09-17T00:14:21.129Z,10.70
2022-09-17T00:16:58.749Z,10.70
2022-09-17T00:19:29.923Z,10.60
2022-09-17T00:21:58.564Z,10.60
2022-09-17T00:24:29.017Z,10.60
2022-09-17T00:26:58.892Z,10.60
2022-09-17T00:29:27.795Z,10.60
2022-09-17T00:31:56.384Z,10.50
2022-09-17T00:34:25.880Z,10.50
2022-09-17T00:36:57.297Z,10.60
2022-09-17T00:39:25.954Z,10.60
2022-09-17T00:41:56.037Z,10.60
2022-09-17T00:44:48.366Z,10.50
2022-09-17T00:47:25.623Z,10.50
2022-09-17T00:49:58.073Z,10.50
2022-09-17T00:52:31.157Z,10.50
2022-09-17T00:55:06.614Z,10.50
2022-09-17T00:57:37.569Z,10.40
2022-09-17T01:00:08.730Z,10.40
2022-09-17T01:02:37.653Z,10.40
2022-09-17T01:05:07.669Z,10.50
2022-09-17T01:07:51.456Z,10.40
2022-09-17T01:10:33.191Z,10.40
2022-09-17T01:13:15.253Z,10.30
2022-09-17T01:15:49.550Z,10.30
2022-09-17T01:18:30.206Z,10.20
2022-09-17T01:21:31.343Z,10.20
2022-09-17T01:24:33.437Z,10.20
2022-09-17T01:27:34.662Z,10.20
2022-09-17T01:30:21.980Z,10.20
2022-09-17T01:33:00.174Z,10.20
2022-09-17T01:35:36.184Z,10.20
2022-09-17T01:38:13.494Z,10.20
2022-09-17T01:40:49.848Z,10.20
2022-09-17T01:43:25.688Z,10.20
2022-09-17T01:45:58.878Z,10.20
2022-09-17T01:48:34.257Z,10.20
2022-09-17T01:51:09.256Z,10.30
2022-09-17T01:53:42.544Z,10.20
2022-09-17T01:56:14.757Z,10.30
2022-09-17T01:58:46.923Z,10.30
2022-09-17T02:01:20.018Z,10.30
2022-09-17T02:03:56.156Z,10.30
2022-09-17T02:06:30.593Z,10.30
2022-09-17T02:09:03.253Z,10.30
2022-09-17T02:11:33.355Z,10.30
2022-09-17T02:14:07.340Z,10.30
2022-09-17T02:16:38.892Z,10.20
2022-09-17T02:19:13.840Z,10.20
2022-09-17T02:21:47.316Z,10.20
2022-09-17T02:24:22.486Z,10.20
2022-09-17T02:26:57.575Z,10.20
2022-09-17T02:29:32.995Z,10.20
2022-09-17T02:32:02.276Z,10.20
2022-09-17T02:34:32.408Z,10.30
2022-09-17T02:37:01.139Z,10.30
2022-09-17T02:39:30.305Z,10.30
2022-09-17T02:42:07.144Z,10.30
2022-09-17T02:44:44.372Z,10.30
2022-09-17T02:47:38.001Z,10.30
2022-09-17T02:50:30.697Z,10.30
2022-09-17T02:53:12.853Z,10.30
2022-09-17T02:55:47.429Z,10.20
2022-09-17T02:58:24.273Z,10.20
2022-09-17T03:00:53.888Z,10.20
2022-09-17T03:03:29.414Z,10.20
2022-09-17T03:06:00.268Z,10.10
2022-09-17T03:08:31.261Z,10.10
2022-09-17T03:10:59.832Z,10.10
2022-09-17T03:13:28.878Z,10.10
2022-09-17T03:15:57.515Z,10.00
2022-09-17T03:18:26.456Z,10.00
2022-09-17T03:20:55.062Z,10.10
2022-09-17T03:23:25.649Z,10.00
2022-09-17T03:25:54.215Z,10.00
2022-09-17T03:28:22.885Z,10.00
2022-09-17T03:30:51.378Z,10.00
2022-09-17T03:33:20.095Z,10.00
2022-09-17T03:35:48.886Z,10.00
2022-09-17T03:38:17.715Z,9.90
2022-09-17T03:40:59.045Z,9.90
2022-09-17T03:43:27.781Z,9.90
2022-09-17T03:45:56.559Z,9.90
2022-09-17T03:48:25.710Z,9.90
2022-09-17T03:50:54.361Z,9.90
2022-09-17T03:53:22.967Z,9.90
2022-09-17T03:55:53.003Z,9.90
2022-09-17T03:58:21.732Z,9.90
2022-09-17T04:00:53.491Z,9.90
2022-09-17T04:03:22.665Z,9.80
2022-09-17T04:05:51.279Z,9.80
2022-09-17T04:08:20.368Z,9.80
2022-09-17T04:10:50.005Z,9.80
2022-09-17T04:13:20.523Z,9.80
2022-09-17T04:15:50.316Z,9.80
2022-09-17T04:18:18.918Z,9.80
2022-09-17T04:20:47.517Z,9.80
2022-09-17T04:23:15.982Z,9.80
2022-09-17T04:25:44.879Z,9.80
2022-09-17T04:28:13.721Z,9.80
2022-09-17T04:30:44.189Z,9.80
2022-09-17T04:33:13.256Z,9.80
2022-09-17T04:35:41.871Z,9.80
2022-09-17T04:38:13.849Z,9.80
2022-09-17T04:40:43.429Z,9.70
2022-09-17T04:43:12.428Z,9.80
2022-09-17T04:45:42.463Z,9.80
2022-09-17T04:48:11.037Z,9.70
2022-09-17T04:50:39.771Z,9.80
2022-09-17T04:53:08.729Z,9.80
2022-09-17T04:55:37.319Z,9.80
2022-09-17T04:58:05.884Z,9.80
2022-09-17T05:00:35.599Z,9.70
2022-09-17T05:03:06.105Z,9.80
2022-09-17T05:05:34.644Z,9.80
2022-09-17T05:08:03.871Z,9.70
2022-09-17T05:10:32.527Z,9.70
2022-09-17T05:13:01.108Z,9.70
2022-09-17T05:15:29.741Z,9.70
2022-09-17T05:17:58.350Z,9.80
2022-09-17T05:20:28.656Z,9.80
2022-09-17T05:22:57.290Z,9.80
2022-09-17T05:25:25.895Z,9.80
2022-09-17T05:27:55.129Z,9.80
2022-09-17T05:30:24.343Z,9.90
2022-09-17T05:33:00.715Z,9.90
2022-09-17T05:35:31.154Z,9.90
2022-09-17T05:38:01.689Z,9.90
2022-09-17T05:40:30.623Z,9.90
2022-09-17T05:43:03.162Z,9.90
2022-09-17T05:45:32.437Z,9.90
2022-09-17T05:48:02.265Z,10.00
2022-09-17T05:50:33.764Z,9.90
2022-09-17T05:53:06.801Z,10.00
2022-09-17T05:55:36.358Z,10.00
2022-09-17T05:58:11.718Z,10.00
2022-09-17T06:00:41.261Z,10.00
2022-09-17T06:03:11.996Z,10.00
2022-09-17T06:05:42.432Z,10.10
2022-09-17T06:08:11.399Z,10.00
2022-09-17T06:10:41.675Z,10.00
2022-09-17T06:13:10.396Z,10.00
2022-09-17T06:15:40.054Z,10.00
2022-09-17T06:18:09.020Z,10.00
2022-09-17T06:20:38.043Z,10.10
2022-09-17T06:23:10.746Z,10.00
2022-09-17T06:25:42.837Z,10.10
2022-09-17T06:28:11.676Z,10.10
2022-09-17T06:30:40.351Z,10.10
2022-09-17T06:33:11.724Z,10.10
2022-09-17T06:35:41.175Z,10.20
2022-09-17T06:38:11.468Z,10.20
2022-09-17T06:40:40.651Z,10.30
2022-09-17T06:43:11.974Z,10.30
2022-09-17T06:45:40.835Z,10.30
2022-09-17T06:48:09.628Z,10.30
2022-09-17T06:50:42.782Z,10.30
2022-09-17T06:53:15.062Z,10.30
2022-09-17T06:55:47.893Z,10.40
2022-09-17T06:58:16.774Z,10.30
2022-09-17T07:00:48.005Z,10.30
2022-09-17T07:03:23.224Z,10.30
2022-09-17T07:05:56.566Z,10.30
2022-09-17T07:08:30.746Z,10.30
2022-09-17T07:11:01.112Z,10.30
2022-09-17T07:13:33.293Z,10.40
2022-09-17T07:16:09.166Z,10.50
2022-09-17T07:18:39.229Z,10.50
2022-09-17T07:21:09.152Z,10.60
2022-09-17T07:23:40.215Z,10.70
2022-09-17T07:26:17.286Z,10.70
2022-09-17T07:28:57.237Z,10.80
2022-09-17T07:31:31.709Z,10.80
2022-09-17T07:34:12.440Z,10.80
2022-09-17T07:36:43.600Z,10.90
2022-09-17T07:39:26.211Z,10.90
2022-09-17T07:41:54.895Z,10.80
2022-09-17T07:44:26.992Z,10.80
2022-09-17T07:46:58.977Z,10.90
2022-09-17T07:49:28.528Z,11.00
2022-09-17T07:51:57.625Z,11.00
2022-09-17T07:54:55.152Z,11.10
2022-09-17T07:57:24.022Z,11.10
2022-09-17T07:59:52.978Z,11.20
2022-09-17T08:02:26.590Z,11.30
2022-09-17T08:04:58.087Z,11.30
2022-09-17T08:07:27.158Z,11.30
2022-09-17T08:10:02.202Z,11.30
2022-09-17T08:12:31.057Z,11.30
2022-09-17T08:15:01.114Z,11.30
2022-09-17T08:20:33.505Z,11.40
2022-09-17T08:23:03.178Z,11.50
2022-09-17T08:25:34.357Z,11.50
2022-09-17T08:28:08.609Z,11.50
2022-09-17T08:30:45.092Z,11.60
2022-09-17T08:33:16.394Z,11.60
2022-09-17T08:35:55.188Z,11.70
2022-09-17T08:38:25.766Z,11.80
2022-09-17T08:41:09.796Z,12.00
2022-09-17T08:43:50.757Z,12.20
2022-09-17T08:46:21.096Z,12.20
2022-09-17T08:48:59.231Z,12.30
2022-09-17T08:51:44.304Z,12.40
2022-09-17T08:54:21.843Z,12.50
2022-09-17T08:57:07.878Z,12.60
2022-09-17T08:59:52.528Z,12.50
2022-09-17T09:02:41.436Z,12.50
2022-09-17T09:05:27.107Z,12.60
2022-09-17T09:08:02.513Z,12.60
2022-09-17T09:10:37.923Z,12.70
2022-09-17T09:13:09.214Z,12.70
2022-09-17T09:15:47.572Z,12.90
2022-09-17T09:18:31.285Z,13.00
2022-09-17T09:21:40.579Z,12.90
2022-09-17T09:24:23.492Z,13.00
2022-09-17T09:27:05.342Z,13.00
2022-09-17T09:32:58.194Z,13.20
2022-09-17T09:35:29.244Z,13.30
2022-09-17T09:38:05.182Z,13.30
2022-09-17T09:40:44.780Z,13.30
2022-09-17T09:43:41.007Z,13.40
2022-09-17T09:46:44.791Z,13.50
2022-09-17T09:49:28.428Z,13.80
2022-09-17T09:52:26.793Z,14.00
2022-09-17T09:55:11.700Z,14.10
2022-09-17T09:57:46.250Z,14.10
2022-09-17T10:00:49.850Z,14.20
2022-09-17T10:03:28.962Z,14.20
2022-09-17T10:06:10.617Z,14.20
2022-09-17T10:09:16.063Z,14.20
2022-09-17T10:12:14.871Z,14.10
2022-09-17T10:14:48.384Z,14.20
2022-09-17T10:17:35.091Z,14.20
2022-09-17T10:20:23.134Z,14.30
2022-09-17T10:22:54.087Z,14.50
2022-09-17T10:25:32.830Z,14.70
2022-09-17T10:28:06.125Z,14.70
2022-09-17T10:30:36.748Z,14.70
2022-09-17T10:33:25.721Z,14.60
2022-09-17T10:36:10.066Z,14.60
2022-09-17T10:38:41.163Z,14.50
2022-09-17T10:41:26.967Z,14.40
2022-09-17T10:44:06.802Z,14.50
2022-09-17T10:46:45.088Z,14.60
2022-09-17T10:49:27.017Z,14.70
2022-09-17T10:52:24.234Z,14.70
2022-09-17T10:55:41.581Z,14.80
2022-09-17T10:58:29.565Z,14.70
2022-09-17T11:01:26.345Z,14.60
2022-09-17T11:04:28.224Z,14.50
2022-09-17T11:07:31.276Z,14.40
2022-09-17T11:10:17.109Z,14.50
2022-09-17T11:13:10.438Z,14.60
2022-09-17T11:15:59.788Z,14.80
2022-09-17T11:18:42.566Z,14.90
2022-09-17T11:21:52.810Z,14.80
2022-09-17T11:24:55.310Z,14.90
2022-09-17T11:27:44.088Z,14.80
2022-09-17T11:30:25.165Z,15.00
2022-09-17T11:33:31.398Z,15.20
2022-09-17T11:36:09.094Z,15.50
2022-09-17T11:38:43.842Z,15.70
2022-09-17T11:41:18.700Z,15.60
2022-09-17T11:43:52.074Z,15.30
2022-09-17T11:46:29.693Z,14.80
2022-09-17T11:49:10.224Z,14.00
2022-09-17T11:51:53.851Z,13.20
2022-09-17T11:54:27.375Z,12.70
2022-09-17T11:57:12.556Z,12.40
2022-09-17T11:59:52.157Z,12.20
2022-09-17T12:02:32.129Z,12.10
2022-09-17T12:05:33.149Z,12.00
2022-09-17T12:08:14.515Z,11.90
2022-09-17T12:10:51.643Z,11.90
2022-09-17T12:13:32.497Z,11.90
2022-09-17T12:16:16.629Z,12.00
2022-09-17T12:19:05.027Z,12.00
2022-09-17T12:21:39.449Z,12.00
2022-09-17T12:24:42.932Z,12.00
2022-09-17T12:27:33.912Z,12.00
2022-09-17T12:30:32.915Z,12.00
2022-09-17T12:33:25.279Z,12.10
2022-09-17T12:36:14.194Z,12.40
2022-09-17T12:39:26.066Z,12.70
2022-09-17T12:42:08.101Z,12.90
2022-09-17T12:48:10.260Z,11.90
2022-09-17T12:51:03.038Z,11.30
2022-09-17T12:53:42.758Z,11.10
2022-09-17T12:56:32.846Z,11.20
2022-09-17T12:59:22.807Z,11.30
2022-09-17T13:02:00.690Z,11.50
2022-09-17T13:05:09.374Z,11.60
2022-09-17T13:08:05.188Z,11.70
2022-09-17T13:11:17.575Z,11.70
2022-09-17T13:14:00.040Z,11.80
2022-09-17T13:16:48.014Z,11.80
2022-09-17T13:19:36.109Z,11.80
2022-09-17T13:22:18.863Z,11.90
2022-09-17T13:25:19.076Z,12.00
2022-09-17T13:27:51.942Z,12.00
2022-09-17T13:31:05.822Z,12.10
2022-09-17T13:34:02.654Z,12.20
2022-09-17T13:36:56.207Z,12.30
2022-09-17T13:40:00.496Z,12.30
2022-09-17T13:42:36.099Z,12.30
2022-09-17T13:45:13.727Z,12.30
2022-09-17T13:47:52.580Z,12.30
2022-09-17T13:50:31.145Z,12.30
2022-09-17T13:53:07.670Z,12.30
2022-09-17T13:55:43.428Z,12.40
2022-09-17T13:58:32.518Z,12.50
2022-09-17T14:01:21.769Z,12.50
2022-09-17T14:04:02.672Z,12.50
2022-09-17T14:07:04.314Z,12.40
2022-09-17T14:10:07.527Z,12.30
2022-09-17T14:13:18.490Z,12.20
2022-09-17T14:16:18.155Z,12.20
2022-09-17T14:19:03.432Z,12.20
2022-09-17T14:21:38.549Z,12.20
2022-09-17T14:24:27.951Z,12.30
2022-09-17T14:27:19.757Z,12.40
2022-09-17T14:30:25.853Z,12.50
2022-09-17T14:33:05.928Z,12.10
2022-09-17T14:35:38.561Z,11.80
2022-09-17T14:38:20.613Z,11.50
2022-09-17T14:40:51.813Z,11.30
2022-09-17T14:43:44.212Z,11.30
2022-09-17T14:46:24.729Z,11.30
2022-09-17T14:49:16.222Z,11.30
2022-09-17T14:51:46.115Z,11.40
2022-09-17T14:54:36.680Z,11.50
2022-09-17T14:57:29.105Z,11.70
2022-09-17T15:00:13.785Z,12.00
2022-09-17T15:02:50.548Z,12.10
2022-09-17T15:05:38.712Z,12.20
2022-09-17T15:08:23.903Z,12.30
2022-09-17T15:11:05.972Z,12.50
2022-09-17T15:13:42.748Z,12.50
2022-09-17T15:16:23.373Z,12.60
2022-09-17T15:19:04.219Z,12.50
2022-09-17T15:21:48.276Z,12.40
2022-09-17T15:24:22.981Z,12.40
2022-09-17T15:27:06.445Z,12.30
2022-09-17T15:29:38.016Z,12.20
2022-09-17T15:32:12.945Z,12.10
2022-09-17T15:34:47.439Z,12.00
2022-09-17T15:37:23.265Z,11.90
2022-09-17T15:39:57.255Z,11.90
2022-09-17T15:42:33.125Z,11.90
2022-09-17T15:45:10.524Z,12.00
2022-09-17T15:47:53.362Z,12.00
2022-09-17T15:50:26.207Z,12.10
2022-09-17T15:53:14.399Z,12.20
2022-09-17T15:55:45.655Z,12.20
2022-09-17T15:58:26.799Z,12.30
2022-09-17T16:01:39.194Z,12.30
2022-09-17T16:04:20.668Z,12.30
2022-09-17T16:06:56.086Z,12.30
2022-09-17T16:09:43.437Z,12.30
2022-09-17T16:12:15.809Z,12.20
2022-09-17T16:14:49.462Z,12.10
2022-09-17T16:17:41.249Z,12.10
2022-09-17T16:20:15.744Z,12.10
2022-09-17T16:22:48.316Z,12.10
2022-09-17T16:25:22.377Z,12.20
2022-09-17T16:27:53.896Z,12.20
2022-09-17T16:30:24.783Z,12.20
2022-09-17T16:32:54.953Z,12.30
2022-09-17T16:35:26.009Z,12.20
2022-09-17T16:37:58.310Z,12.10
2022-09-17T16:40:29.366Z,12.10
2022-09-17T16:43:04.421Z,12.00
2022-09-17T16:45:34.014Z,12.00
2022-09-17T16:48:04.962Z,11.90
2022-09-17T16:50:34.966Z,11.80
2022-09-17T16:53:06.854Z,11.80
2022-09-17T16:55:35.838Z,11.80
2022-09-17T16:58:05.668Z,11.90
2022-09-17T17:00:35.667Z,11.90
2022-09-17T17:03:08.112Z,11.90
2022-09-17T17:05:39.198Z,12.00
2022-09-17T17:08:10.897Z,12.00
2022-09-17T17:10:40.227Z,12.00
2022-09-17T17:13:09.306Z,12.00
2022-09-17T17:15:41.943Z,12.00
2022-09-17T17:18:11.264Z,12.00
2022-09-17T17:20:41.966Z,12.00
2022-09-17T17:23:12.807Z,12.00
2022-09-17T17:25:42.263Z,12.00
2022-09-17T17:28:11.434Z,12.00
2022-09-17T17:30:40.957Z,11.90
2022-09-17T17:33:33.436Z,11.90
2022-09-17T17:36:07.915Z,11.80
2022-09-17T17:38:42.813Z,11.80
2022-09-17T17:41:13.697Z,11.80
2022-09-17T17:43:43.689Z,11.70
2022-09-17T17:46:13.847Z,11.70
2022-09-17T17:48:43.975Z,11.70
2022-09-17T17:51:13.162Z,11.60
2022-09-17T17:53:46.510Z,11.60
2022-09-17T17:56:24.531Z,11.60
2022-09-17T17:58:56.892Z,11.70
2022-09-17T18:01:34.759Z,11.60
2022-09-17T18:04:05.853Z,11.60
2022-09-17T18:06:38.329Z,11.60
2022-09-17T18:09:12.684Z,11.60
2022-09-17T18:11:41.818Z,11.50
2022-09-17T18:14:14.323Z,11.50
2022-09-17T18:16:43.861Z,11.50
2022-09-17T18:19:15.140Z,11.50
2022-09-17T18:21:44.443Z,11.50
2022-09-17T18:24:15.359Z,11.60
2022-09-17T18:26:47.430Z,11.60
2022-09-17T18:29:16.776Z,11.60
2022-09-17T18:31:52.319Z,11.60
2022-09-17T18:34:21.548Z,11.60
2022-09-17T18:36:51.492Z,11.70
2022-09-17T18:42:13.334Z,11.80
2022-09-17T18:44:46.414Z,11.80
2022-09-17T18:47:15.594Z,11.80
2022-09-17T18:49:44.859Z,11.80
2022-09-17T18:52:15.556Z,11.80
2022-09-17T18:54:48.454Z,11.80
2022-09-17T18:57:21.314Z,11.80
2022-09-17T18:59:50.964Z,11.80
2022-09-17T19:02:20.121Z,11.80
2022-09-17T19:04:49.184Z,11.70
2022-09-17T19:07:24.464Z,11.70
2022-09-17T19:09:55.325Z,11.80
2022-09-17T19:12:25.554Z,11.70
2022-09-17T19:14:57.422Z,11.80
2022-09-17T19:17:26.784Z,11.70
2022-09-17T19:19:55.815Z,11.70
2022-09-17T19:22:25.780Z,11.70
2022-09-17T19:24:56.529Z,11.70
2022-09-17T19:27:25.775Z,11.70
2022-09-17T19:29:58.201Z,11.70
2022-09-17T19:32:28.471Z,11.70
2022-09-17T19:34:58.480Z,11.70
2022-09-17T19:37:27.870Z,11.80
2022-09-17T19:39:59.408Z,11.70
2022-09-17T19:42:30.072Z,11.70
2022-09-17T19:44:59.653Z,11.70
2022-09-17T19:47:28.971Z,11.70
2022-09-17T19:49:58.228Z,11.60
2022-09-17T19:52:27.377Z,11.60
2022-09-17T19:54:58.144Z,11.60
2022-09-17T19:57:30.214Z,11.60
2022-09-17T19:59:59.579Z,11.60
2022-09-17T20:02:31.163Z,11.60
2022-09-17T20:05:03.494Z,11.50
2022-09-17T20:07:34.136Z,11.50
2022-09-17T20:10:19.067Z,11.50
2022-09-17T20:12:52.247Z,11.50
2022-09-17T20:15:24.150Z,11.50
2022-09-17T20:17:53.697Z,11.50
2022-09-17T20:20:28.766Z,11.60
2022-09-17T20:22:58.264Z,11.60
2022-09-17T20:25:29.380Z,11.60
2022-09-17T20:27:58.826Z,11.60
2022-09-17T20:30:31.110Z,11.60
2022-09-17T20:33:02.382Z,11.60
2022-09-17T20:35:34.002Z,11.60
2022-09-17T20:40:54.149Z,11.60
2022-09-17T20:43:23.193Z,11.60
2022-09-17T20:45:56.083Z,11.60
2022-09-17T20:48:25.505Z,11.60
2022-09-17T20:51:00.475Z,11.60
2022-09-17T20:53:30.939Z,11.60
2022-09-17T20:56:06.931Z,11.60
2022-09-17T20:58:40.097Z,11.60
2022-09-17T21:01:13.702Z,11.60
2022-09-17T21:03:56.618Z,11.50
2022-09-17T21:06:28.761Z,11.50
2022-09-17T21:09:00.378Z,11.50
2022-09-17T21:11:32.575Z,11.50
2022-09-17T21:14:04.277Z,11.40
2022-09-17T21:16:33.327Z,11.40
2022-09-17T21:19:04.602Z,11.30
2022-09-17T21:21:34.710Z,11.30
2022-09-17T21:24:16.069Z,11.30
2022-09-17T21:26:47.857Z,11.20
2022-09-17T21:29:17.721Z,11.20
2022-09-17T21:31:47.219Z,11.20
2022-09-17T21:34:18.631Z,11.20
2022-09-17T21:36:49.534Z,11.20
2022-09-17T21:39:19.799Z,11.10
2022-09-17T21:41:54.450Z,11.10
2022-09-17T21:44:26.126Z,11.10
2022-09-17T21:46:58.047Z,11.10
2022-09-17T21:49:27.367Z,11.10
2022-09-17T21:51:56.582Z,11.10
2022-09-17T21:54:25.879Z,11.10
2022-09-17T21:56:56.579Z,11.00
2022-09-17T21:59:25.707Z,11.00
2022-09-17T22:01:54.827Z,11.00
2022-09-17T22:04:24.471Z,11.00
2022-09-17T22:06:57.316Z,11.00
2022-09-17T22:09:27.950Z,11.00
2022-09-17T22:12:02.126Z,11.00
2022-09-17T22:14:31.464Z,11.10
2022-09-17T22:17:00.837Z,11.00
2022-09-17T22:19:29.818Z,11.10
2022-09-17T22:21:59.203Z,11.00
2022-09-17T22:24:28.418Z,11.00
2022-09-17T22:26:59.022Z,11.00
2022-09-17T22:29:30.526Z,11.10
2022-09-17T22:31:59.428Z,11.00
2022-09-17T22:34:29.926Z,11.10
2022-09-17T22:37:00.093Z,11.00
2022-09-17T22:39:29.113Z,11.10
2022-09-17T22:41:59.536Z,11.00
2022-09-17T22:44:31.387Z,11.00
2022-09-17T22:47:00.584Z,11.00
2022-09-17T22:49:29.927Z,10.90
2022-09-17T22:51:59.007Z,10.90
2022-09-17T22:54:27.813Z,10.90
2022-09-17T22:56:57.379Z,10.90
2022-09-17T22:59:27.610Z,10.90
2022-09-17T23:01:57.163Z,10.90
2022-09-17T23:04:25.934Z,10.90
2022-09-17T23:06:55.007Z,10.90
2022-09-17T23:09:23.667Z,10.90
2022-09-17T23:11:52.657Z,11.00
2022-09-17T23:14:21.434Z,11.00
2022-09-17T23:16:51.563Z,11.00
2022-09-17T23:19:20.893Z,11.00
2022-09-17T23:21:49.585Z,11.00
2022-09-17T23:24:21.449Z,11.10
2022-09-17T23:26:50.528Z,11.10
2022-09-17T23:29:19.823Z,11.20
2022-09-17T23:31:48.685Z,11.20
2022-09-17T23:34:18.812Z,11.20
2022-09-17T23:36:47.633Z,11.30
2022-09-17T23:39:16.621Z,11.30
2022-09-17T23:41:45.742Z,11.30
2022-09-17T23:44:16.220Z,11.30
2022-09-17T23:46:46.207Z,11.30
2022-09-17T23:49:15.925Z,11.30
2022-09-17T23:51:46.451Z,11.20
2022-09-17T23:54:15.451Z,11.20
2022-09-17T23:56:44.289Z,11.20
2022-09-17T23:59:13.310Z,11.20
